Time;durP1;ratioP1;P1;durP2;ratioP2;P2;SDS_P1;SDS_P2;PMS_P1;PMS_P2;Temp;Humidity;BMP_temperature;BMP_pressure;BME280_temperature;BME280_humidity;BME280_pressure;Samples;Min_cycle;Max_cycle;Signal;HPM_P1;HPM_P2
2021/07/20 00:28:52;;;;;;;14.07;6.17;;;;;;;16.01;71.75;100645.66;20761038;83;99639;-90
2021/07/20 00:58:55;;;;;;;18.85;7.62;;;;;;;15.57;74.25;100643.59;20786579;82;99610;-89
2021/07/20 01:28:57;;;;;;;11.90;6.27;;;;;;;15.40;75.91;100639.52;20836641;82;99616;-90
2021/07/20 01:58:58;;;;;;;14.50;7.33;;;;;;;15.33;76.82;100625.11;20635024;83;99440;-90
2021/07/20 02:29:02;;;;;;;13.73;7.70;;;;;;;15.61;77.96;100619.98;20421107;84;99832;-90
2021/07/20 02:59:06;;;;;;;13.63;7.37;;;;;;;15.90;77.97;100604.11;20527261;82;102113;-90
2021/07/20 03:29:09;;;;;;;11.67;6.63;;;;;;;16.06;77.91;100611.91;20802013;83;99626;-90
2021/07/20 03:59:12;;;;;;;12.53;6.50;;;;;;;16.18;78.01;100607.27;20903997;82;99745;-90
2021/07/20 04:29:13;;;;;;;12.28;6.45;;;;;;;16.32;78.70;100606.53;21013244;82;99751;-91
2021/07/20 04:59:14;;;;;;;13.53;6.00;;;;;;;16.95;78.08;100617.61;21007378;82;182488;-90
2021/07/20 05:29:20;;;;;;;9.80;4.93;;;;;;;16.95;78.08;100617.61;20950608;82;99965;-91
2021/07/20 05:59:23;;;;;;;9.57;4.63;;;;;;;17.70;77.34;100653.79;20903066;82;99547;-87
2021/07/20 06:29:25;;;;;;;9.23;4.03;;;;;;;18.45;75.74;100676.72;20815896;82;99662;-90
2021/07/20 06:59:29;;;;;;;12.98;5.05;;;;;;;19.29;73.45;100703.69;20883256;82;99708;-89
2021/07/20 07:29:31;;;;;;;11.33;3.77;;;;;;;20.49;71.64;100701.19;20991043;82;99474;-91
2021/07/20 07:59:42;;;;;;;9.57;2.97;;;;;;;21.86;68.03;100694.75;20930123;82;99871;-90
2021/07/20 08:29:45;;;;;;;8.15;2.85;;;;;;;23.27;63.85;100702.86;20780461;82;99607;-93
2021/07/20 09:00:09;;;;;;;5.83;2.87;;;;;;;24.16;59.46;100705.28;20735272;82;5403211;-94
2021/07/20 09:30:19;;;;;;;8.40;3.35;;;;;;;24.35;58.36;100690.82;20741447;82;2277602;-91
2021/07/20 10:00:24;;;;;;;6.60;2.87;;;;;;;25.56;54.88;100683.75;20814894;82;100265;-91
2021/07/20 10:30:28;;;;;;;8.90;3.20;;;;;;;26.57;51.05;100673.81;20804200;82;99821;-90
2021/07/20 11:00:37;;;;;;;12.30;3.50;;;;;;;27.63;48.79;100670.55;20768240;83;99351;-89
2021/07/20 11:30:42;;;;;;;7.47;3.05;;;;;;;26.93;47.17;100661.64;20830966;82;100393;-94
2021/07/20 12:01:39;;;;;;;9.20;2.80;;;;;;;25.86;48.63;100665.18;20810646;83;5354568;-92
2021/07/20 12:31:43;;;;;;;9.63;2.72;;;;;;;25.60;49.03;100659.01;20978595;82;99759;-92
2021/07/20 13:01:44;;;;;;;8.38;3.00;;;;;;;25.77;47.83;100650.34;20988072;83;99666;-85
2021/07/20 13:31:45;;;;;;;5.45;2.77;;;;;;;25.81;45.57;100639.03;21012280;82;99280;-88
2021/07/20 14:01:47;;;;;;;8.33;3.30;;;;;;;25.25;46.76;100637.47;21041350;82;99502;-90
2021/07/20 14:31:48;;;;;;;6.80;2.65;;;;;;;25.46;45.44;100646.36;20977594;82;99586;-87
2021/07/20 15:01:51;;;;;;;4.42;2.20;;;;;;;25.85;43.25;100641.06;21021123;82;99717;-88
2021/07/20 15:31:56;;;;;;;6.40;2.30;;;;;;;26.08;42.21;100636.74;21038883;82;101040;-90
2021/07/20 16:01:58;;;;;;;6.28;2.60;;;;;;;26.36;39.72;100624.03;20966957;82;99788;-88
2021/07/20 16:32:05;;;;;;;7.92;2.58;;;;;;;25.27;39.11;100615.23;20815943;83;99328;-90
2021/07/20 17:02:15;;;;;;;7.97;2.77;;;;;;;23.98;41.59;100594.92;20876358;83;99538;-93
2021/07/20 17:32:18;;;;;;;5.33;2.40;;;;;;;22.96;42.46;100602.91;21023344;82;99347;-86
2021/07/20 18:02:19;;;;;;;8.65;2.85;;;;;;;22.17;43.24;100626.33;20959411;82;99306;-85
2021/07/20 18:32:21;;;;;;;7.47;2.80;;;;;;;21.63;45.75;100644.61;20937038;83;99283;-86
2021/07/20 19:02:22;;;;;;;7.20;2.80;;;;;;;20.79;48.84;100666.63;20897727;82;100939;-86
2021/07/20 19:32:23;;;;;;;8.50;2.98;;;;;;;19.95;51.14;100677.71;20899160;83;99505;-87
2021/07/20 20:02:37;;;;;;;8.40;3.30;;;;;;;18.75;54.46;100710.03;20881150;83;122166;-89
2021/07/20 20:32:39;;;;;;;9.87;4.33;;;;;;;17.77;57.70;100733.06;20870554;82;185264;-87
2021/07/20 21:02:40;;;;;;;7.97;4.10;;;;;;;17.09;59.42;100754.49;20946641;82;99705;-87
2021/07/20 21:32:42;;;;;;;10.03;4.90;;;;;;;16.59;61.63;100763.10;21016512;82;99802;-87
2021/07/20 22:02:43;;;;;;;11.60;4.97;;;;;;;15.42;67.83;100763.34;20946296;82;99632;-87
2021/07/20 22:32:54;;;;;;;10.32;4.42;;;;;;;15.42;67.83;100763.34;20756220;83;99781;-86
2021/07/20 23:02:55;;;;;;;11.28;5.58;;;;;;;15.04;69.66;100805.17;20751653;83;99846;-87
2021/07/20 23:32:59;;;;;;;12.80;6.33;;;;;;;14.65;72.47;100824.36;20792300;83;99723;-86
